Turret, Colorado
Current Conditions -  °F | °C
As of 10:55 PM on Saturday 22 Nov 2014 (Local Time) from KANK Reporting Station
Overcast Overcast  
Wind Chill: 31°   Ceiling: 6000
Heat Index: 38°   Visibility: 10mi
Dew Point: 29°   Wind: 9mph
Humidity: 69%   Direction: 300°WNW
Pressure: 29.81"   Gusts: NA
Location:  38.5561°N, 106.066°W
Report Text: KANK 230555Z AUTO 30008KT 10SM SCT040 BKN060 OVC070 03/M02 A2981 RMK AO1 T00321019 10073 20015 401121027
Loading
Personal Weather Stations






























Interactive Weather Map New forecast layout! Learn more

10-Day Weather Forecast

Advertisements
Track Severe Weather on mobile